createdAt,value
2023-05-03T00:00:47.835Z,0
2023-05-03T00:01:47.885Z,0
2023-05-03T00:02:47.973Z,0
2023-05-03T00:03:47.869Z,0
2023-05-03T00:04:47.900Z,0
2023-05-03T00:05:48.000Z,0
2023-05-03T00:06:47.996Z,0
2023-05-03T00:07:47.850Z,0
2023-05-03T00:08:47.860Z,0
2023-05-03T00:09:47.852Z,0
2023-05-03T00:10:47.841Z,0
2023-05-03T00:11:47.846Z,0
2023-05-03T00:12:47.847Z,0
2023-05-03T00:13:47.863Z,0
2023-05-03T00:14:47.847Z,0
2023-05-03T00:15:47.842Z,0
2023-05-03T00:16:47.912Z,0
2023-05-03T00:17:47.867Z,0
2023-05-03T00:18:49.325Z,0
2023-05-03T00:19:47.851Z,0
2023-05-03T00:20:47.843Z,0
2023-05-03T00:21:47.849Z,0
2023-05-03T00:22:47.837Z,0
2023-05-03T00:23:47.861Z,0
2023-05-03T00:24:47.861Z,0
2023-05-03T00:25:47.847Z,0
2023-05-03T00:26:47.853Z,0
2023-05-03T00:27:47.838Z,0
2023-05-03T00:28:47.858Z,0
2023-05-03T00:29:47.851Z,0
2023-05-03T00:30:47.942Z,0
2023-05-03T00:31:47.854Z,0
2023-05-03T00:32:47.920Z,0
2023-05-03T00:33:47.857Z,0
2023-05-03T00:34:47.846Z,0
2023-05-03T00:35:47.839Z,0
2023-05-03T00:36:47.835Z,0
2023-05-03T00:37:47.844Z,0
2023-05-03T00:38:47.859Z,0
2023-05-03T00:39:47.873Z,0
2023-05-03T00:40:47.844Z,0
2023-05-03T00:41:47.867Z,0
2023-05-03T00:42:47.845Z,0
2023-05-03T00:43:47.877Z,0
2023-05-03T00:44:47.853Z,0
2023-05-03T00:45:47.845Z,0
2023-05-03T00:46:47.920Z,0
2023-05-03T00:47:47.901Z,0
2023-05-03T00:48:47.863Z,0
2023-05-03T00:49:47.842Z,0
2023-05-03T00:50:47.858Z,0
2023-05-03T00:51:47.846Z,0
2023-05-03T00:52:47.858Z,0
2023-05-03T00:53:47.863Z,0
2023-05-03T00:54:47.858Z,0
2023-05-03T00:55:47.844Z,0
2023-05-03T00:56:51.625Z,0
2023-05-03T00:57:47.843Z,0
2023-05-03T00:58:47.858Z,0
2023-05-03T00:59:47.843Z,0
2023-05-03T01:00:47.845Z,0
2023-05-03T01:01:47.874Z,0
2023-05-03T01:02:47.918Z,0
2023-05-03T01:03:47.949Z,0
2023-05-03T01:04:47.860Z,0
2023-05-03T01:05:47.855Z,0
2023-05-03T01:06:48.015Z,0
2023-05-03T01:07:47.852Z,0
2023-05-03T01:08:47.869Z,0
2023-05-03T01:09:47.868Z,0
2023-05-03T01:10:47.839Z,0
2023-05-03T01:11:47.844Z,0
2023-05-03T01:12:47.837Z,0
2023-05-03T01:13:47.852Z,0
2023-05-03T01:14:47.848Z,0
2023-05-03T01:15:47.879Z,0
2023-05-03T01:16:47.859Z,0
2023-05-03T01:17:47.894Z,0
2023-05-03T01:18:47.857Z,0
2023-05-03T01:19:47.835Z,0
2023-05-03T01:20:47.850Z,0
2023-05-03T01:21:47.850Z,0
2023-05-03T01:22:47.843Z,0
2023-05-03T01:23:47.855Z,0
2023-05-03T01:24:47.858Z,0
2023-05-03T01:25:47.837Z,0
2023-05-03T01:26:47.838Z,0
2023-05-03T01:27:47.845Z,0
2023-05-03T01:28:47.864Z,0
2023-05-03T01:29:47.842Z,0
2023-05-03T01:30:47.858Z,0
2023-05-03T01:31:47.928Z,0
2023-05-03T01:32:47.873Z,0
2023-05-03T01:33:47.860Z,0
2023-05-03T01:34:47.850Z,0
2023-05-03T01:35:47.839Z,0
2023-05-03T01:36:47.845Z,0
2023-05-03T01:37:47.845Z,0
2023-05-03T01:38:47.858Z,0
2023-05-03T01:39:48.009Z,0
2023-05-03T01:40:47.859Z,0
2023-05-03T01:41:47.840Z,0
2023-05-03T01:42:47.852Z,0
2023-05-03T01:43:47.869Z,0
2023-05-03T01:44:47.841Z,0
2023-05-03T01:45:47.931Z,0
2023-05-03T01:46:47.844Z,0
2023-05-03T01:47:47.866Z,0
2023-05-03T01:48:47.869Z,0
2023-05-03T01:49:47.845Z,0
2023-05-03T01:50:47.840Z,0
2023-05-03T01:51:47.836Z,0
2023-05-03T01:52:47.845Z,0
2023-05-03T01:53:47.852Z,0
2023-05-03T01:54:47.854Z,0
2023-05-03T01:55:47.841Z,0
2023-05-03T01:56:47.840Z,0
2023-05-03T01:57:47.855Z,0
2023-05-03T01:58:47.857Z,0
2023-05-03T01:59:47.841Z,0
2023-05-03T02:00:47.866Z,0
2023-05-03T02:01:47.858Z,0
2023-05-03T02:02:47.897Z,0
2023-05-03T02:03:47.863Z,0
2023-05-03T02:04:47.953Z,0
2023-05-03T02:05:47.841Z,0
2023-05-03T02:06:47.919Z,0
2023-05-03T02:07:47.844Z,0
2023-05-03T02:08:47.858Z,0
2023-05-03T02:09:47.869Z,0
2023-05-03T02:10:47.855Z,0
2023-05-03T02:11:47.844Z,0
2023-05-03T02:12:47.843Z,0
2023-05-03T02:13:47.856Z,0
2023-05-03T02:14:47.854Z,0
2023-05-03T02:15:47.847Z,0
2023-05-03T02:16:47.849Z,0
2023-05-03T02:17:47.875Z,0
2023-05-03T02:18:47.857Z,0
2023-05-03T02:19:47.836Z,0
2023-05-03T02:20:47.865Z,0
2023-05-03T02:21:47.851Z,0
2023-05-03T02:22:47.847Z,0
2023-05-03T02:23:47.864Z,0
2023-05-03T02:24:47.863Z,0
2023-05-03T02:25:47.846Z,0
2023-05-03T02:26:47.846Z,0
2023-05-03T02:27:47.845Z,0
2023-05-03T02:28:47.859Z,0
2023-05-03T02:29:47.846Z,0
2023-05-03T02:30:47.909Z,0
2023-05-03T02:31:47.857Z,0
2023-05-03T02:32:47.909Z,0
2023-05-03T02:33:47.858Z,0
2023-05-03T02:34:47.863Z,0
2023-05-03T02:35:47.847Z,0
2023-05-03T02:36:47.841Z,0
2023-05-03T02:37:47.839Z,0
2023-05-03T02:38:47.858Z,0
2023-05-03T02:39:48.036Z,0
2023-05-03T02:40:47.849Z,0
2023-05-03T02:41:47.838Z,0
2023-05-03T02:42:47.844Z,0
2023-05-03T02:43:47.851Z,0
2023-05-03T02:44:47.848Z,0
2023-05-03T02:45:47.853Z,0
2023-05-03T02:46:47.895Z,0
2023-05-03T02:47:47.891Z,0
2023-05-03T02:48:47.861Z,0
2023-05-03T02:49:47.841Z,0
2023-05-03T02:50:47.843Z,0
2023-05-03T02:51:47.862Z,0
2023-05-03T02:52:47.840Z,0
2023-05-03T02:53:47.867Z,0
2023-05-03T02:54:47.859Z,0
2023-05-03T02:55:47.840Z,0
2023-05-03T02:56:47.840Z,0
2023-05-03T02:57:47.848Z,0
2023-05-03T02:58:47.880Z,0
2023-05-03T02:59:47.849Z,0
2023-05-03T03:00:47.851Z,0
2023-05-03T03:01:47.874Z,0
2023-05-03T03:02:47.920Z,0
2023-05-03T03:03:47.976Z,0
2023-05-03T03:04:47.840Z,0
2023-05-03T03:05:47.837Z,0
2023-05-03T03:06:47.964Z,0
2023-05-03T03:07:47.839Z,0
2023-05-03T03:08:47.853Z,0
2023-05-03T03:09:47.859Z,0
2023-05-03T03:10:47.848Z,0
2023-05-03T03:11:47.843Z,0
2023-05-03T03:12:47.849Z,0
2023-05-03T03:13:47.856Z,0
2023-05-03T03:14:47.843Z,0
2023-05-03T03:15:47.852Z,0
2023-05-03T03:16:47.852Z,0
2023-05-03T03:17:47.895Z,0
2023-05-03T03:18:47.852Z,0
2023-05-03T03:19:47.848Z,0.01
2023-05-03T03:20:47.848Z,0.01
2023-05-03T03:21:47.839Z,0.01
2023-05-03T03:22:47.863Z,0.01
2023-05-03T03:23:47.852Z,0.01
2023-05-03T03:24:47.859Z,0.01
2023-05-03T03:25:47.837Z,0.01
2023-05-03T03:26:47.839Z,0.02
2023-05-03T03:27:47.846Z,0.02
2023-05-03T03:28:47.858Z,0.02
2023-05-03T03:29:47.845Z,0.02
2023-05-03T03:30:47.846Z,0.03
2023-05-03T03:31:47.872Z,0.03
2023-05-03T03:32:47.906Z,0.03
2023-05-03T03:33:47.844Z,0.03
2023-05-03T03:34:47.838Z,0.04
2023-05-03T03:35:47.840Z,0.04
2023-05-03T03:36:47.854Z,0.04
2023-05-03T03:37:47.862Z,0.05
2023-05-03T03:38:47.855Z,0.05
2023-05-03T03:39:47.868Z,0.06
2023-05-03T03:40:47.853Z,0.06
2023-05-03T03:41:47.843Z,0.06
2023-05-03T03:42:47.851Z,0.07
2023-05-03T03:43:47.855Z,0.07
2023-05-03T03:44:47.841Z,0.07
2023-05-03T03:45:47.856Z,0.08
2023-05-03T03:46:47.872Z,0.08
2023-05-03T03:47:47.905Z,0.08
2023-05-03T03:48:47.859Z,0.09
2023-05-03T03:49:47.852Z,0.09
2023-05-03T03:50:47.844Z,0.1
2023-05-03T03:51:47.852Z,0.1
2023-05-03T03:52:47.844Z,0.11
2023-05-03T03:53:47.859Z,0.11
2023-05-03T03:54:47.854Z,0.12
2023-05-03T03:55:47.853Z,0.12
2023-05-03T03:56:47.842Z,0.13
2023-05-03T03:57:47.840Z,0.13
2023-05-03T03:58:47.857Z,0.14
2023-05-03T03:59:47.841Z,0.14
2023-05-03T04:00:47.840Z,0.15
2023-05-03T04:01:47.857Z,0.15
2023-05-03T04:02:47.958Z,0.16
2023-05-03T04:03:48.001Z,0.16
2023-05-03T04:04:47.846Z,0.17
2023-05-03T04:05:47.852Z,0.17
2023-05-03T04:06:48.043Z,0.18
2023-05-03T04:07:47.842Z,0.18
2023-05-03T04:08:47.867Z,0.19
2023-05-03T04:09:47.864Z,0.2
2023-05-03T04:10:47.833Z,0.2
2023-05-03T04:11:47.841Z,0.21
2023-05-03T04:12:47.848Z,0.22
2023-05-03T04:13:47.852Z,0.22
2023-05-03T04:14:47.831Z,0.23
2023-05-03T04:15:47.841Z,0.24
2023-05-03T04:16:47.915Z,0.24
2023-05-03T04:17:47.862Z,0.24
2023-05-03T04:18:47.857Z,0.25
2023-05-03T04:19:47.854Z,0.25
2023-05-03T04:20:47.844Z,0.26
2023-05-03T04:21:47.839Z,0.27
2023-05-03T04:22:47.841Z,0.28
2023-05-03T04:23:47.851Z,0.28
2023-05-03T04:24:47.863Z,0.29
2023-05-03T04:25:47.837Z,0.3
2023-05-03T04:26:47.842Z,0.31
2023-05-03T04:27:47.848Z,0.32
2023-05-03T04:28:47.859Z,0.32
2023-05-03T04:29:47.851Z,0.33
2023-05-03T04:30:47.938Z,0.35
2023-05-03T04:31:47.865Z,0.35
2023-05-03T04:32:47.916Z,0.37
2023-05-03T04:33:47.865Z,0.37
2023-05-03T04:34:49.343Z,0.38
2023-05-03T04:35:47.839Z,0.39
2023-05-03T04:36:47.838Z,0.4
2023-05-03T04:37:47.849Z,0.41
2023-05-03T04:38:47.851Z,0.42
2023-05-03T04:39:47.860Z,0.42
2023-05-03T04:40:47.854Z,0.42
2023-05-03T04:41:47.846Z,0.43
2023-05-03T04:42:47.849Z,0.44
2023-05-03T04:43:47.860Z,0.45
2023-05-03T04:44:47.857Z,0.45
2023-05-03T04:45:48.062Z,0.45
2023-05-03T04:46:49.519Z,0.46
2023-05-03T04:47:47.903Z,0.47
2023-05-03T04:48:47.881Z,0.47
2023-05-03T04:49:47.836Z,0.48
2023-05-03T04:50:47.852Z,0.5
2023-05-03T04:51:47.878Z,0.51
2023-05-03T04:52:47.872Z,0.52
2023-05-03T04:53:47.861Z,0.52
2023-05-03T04:54:47.874Z,0.53
2023-05-03T04:55:47.843Z,0.54
2023-05-03T04:56:47.865Z,0.54
2023-05-03T04:57:47.855Z,0.55
2023-05-03T04:58:47.873Z,0.56
2023-05-03T04:59:47.854Z,0.57
2023-05-03T05:00:47.854Z,0.58
2023-05-03T05:01:47.888Z,0.59
2023-05-03T05:02:47.951Z,0.6
2023-05-03T05:03:47.991Z,0.62
2023-05-03T05:04:47.839Z,0.64
2023-05-03T05:05:47.851Z,0.65
2023-05-03T05:06:47.947Z,0.65
2023-05-03T05:07:47.874Z,0.65
2023-05-03T05:08:47.848Z,0.66
2023-05-03T05:09:47.858Z,0.67
2023-05-03T05:10:47.862Z,0.67
2023-05-03T05:11:47.840Z,0.69
2023-05-03T05:12:47.840Z,0.68
2023-05-03T05:13:47.852Z,0.69
2023-05-03T05:14:47.849Z,0.7
2023-05-03T05:15:47.832Z,0.71
2023-05-03T05:16:47.922Z,0.73
2023-05-03T05:17:48.041Z,0.75
2023-05-03T05:18:48.625Z,0.78
2023-05-03T05:19:47.838Z,0.8
2023-05-03T05:20:47.853Z,0.81
2023-05-03T05:21:47.838Z,0.81
2023-05-03T05:22:47.832Z,0.83
2023-05-03T05:23:47.868Z,0.84
2023-05-03T05:24:47.852Z,0.85
2023-05-03T05:25:47.845Z,0.88
2023-05-03T05:26:47.842Z,0.9
2023-05-03T05:27:47.839Z,0.93
2023-05-03T05:28:47.849Z,0.96
2023-05-03T05:29:47.839Z,0.97
2023-05-03T05:30:47.840Z,0.97
2023-05-03T05:31:47.867Z,0.98
2023-05-03T05:32:47.867Z,1.01
2023-05-03T05:33:47.855Z,1.03
2023-05-03T05:34:47.839Z,1.05
2023-05-03T05:35:47.843Z,1.05
2023-05-03T05:36:47.833Z,1.04
2023-05-03T05:37:47.862Z,1.05
2023-05-03T05:38:47.846Z,1.1
2023-05-03T05:39:47.890Z,1.13
2023-05-03T05:40:47.838Z,1.15
2023-05-03T05:41:47.832Z,1.15
2023-05-03T05:42:47.837Z,1.17
2023-05-03T05:43:47.853Z,1.18
2023-05-03T05:44:47.847Z,1.19
2023-05-03T05:45:47.845Z,1.2
2023-05-03T05:46:47.864Z,1.19
2023-05-03T05:47:47.903Z,1.24
2023-05-03T05:48:47.847Z,1.24
2023-05-03T05:49:47.844Z,1.26
2023-05-03T05:50:47.846Z,1.25
2023-05-03T05:51:47.841Z,1.24
2023-05-03T05:52:47.839Z,1.25
2023-05-03T05:53:47.871Z,1.26
2023-05-03T05:54:47.863Z,1.27
2023-05-03T05:55:47.843Z,1.3
2023-05-03T05:56:47.839Z,1.32
2023-05-03T05:57:47.850Z,1.38
2023-05-03T05:58:47.853Z,1.37
2023-05-03T05:59:47.874Z,1.35
2023-05-03T06:00:47.838Z,1.38
2023-05-03T06:01:47.861Z,1.41
2023-05-03T06:02:48.004Z,1.48
2023-05-03T06:03:47.860Z,1.48
2023-05-03T06:04:47.879Z,1.48
2023-05-03T06:05:47.881Z,1.47
2023-05-03T06:06:47.969Z,1.48
2023-05-03T06:07:47.849Z,1.48
2023-05-03T06:08:47.854Z,1.48
2023-05-03T06:09:47.864Z,1.54
2023-05-03T06:10:47.842Z,1.58
2023-05-03T06:11:47.855Z,1.6
2023-05-03T06:12:47.845Z,1.6
2023-05-03T06:13:47.857Z,1.61
2023-05-03T06:15:01.502Z,1.64
2023-05-03T06:15:47.850Z,1.68
2023-05-03T06:16:47.900Z,1.68
2023-05-03T06:17:47.946Z,1.68
2023-05-03T06:18:47.865Z,1.68
2023-05-03T06:19:47.850Z,1.71
2023-05-03T06:20:47.841Z,1.75
2023-05-03T06:21:47.849Z,1.78
2023-05-03T06:22:47.849Z,1.8
2023-05-03T06:23:47.862Z,1.8
2023-05-03T06:24:47.861Z,1.8
2023-05-03T06:25:47.865Z,1.84
2023-05-03T06:26:47.847Z,1.93
2023-05-03T06:27:47.841Z,2
2023-05-03T06:28:47.865Z,1.99
2023-05-03T06:29:47.841Z,2.03
2023-05-03T06:30:47.884Z,2
2023-05-03T06:31:47.849Z,2.01
2023-05-03T06:32:47.903Z,2.07
2023-05-03T06:33:47.858Z,2.13
2023-05-03T06:34:47.848Z,2.16
2023-05-03T06:35:47.844Z,2.16
2023-05-03T06:36:47.849Z,2.19
2023-05-03T06:37:47.850Z,2.18
2023-05-03T06:38:47.847Z,2.15
2023-05-03T06:39:47.866Z,2.16
2023-05-03T06:40:47.834Z,2.23
2023-05-03T06:41:47.843Z,2.24
2023-05-03T06:42:47.840Z,2.23
2023-05-03T06:43:47.845Z,2.23
2023-05-03T06:44:47.840Z,2.25
2023-05-03T06:45:47.844Z,2.22
2023-05-03T06:46:47.904Z,2.23
2023-05-03T06:47:47.880Z,2.55
2023-05-03T06:48:47.896Z,2.37
2023-05-03T06:49:47.843Z,2.44
2023-05-03T06:50:47.842Z,3
2023-05-03T06:51:47.846Z,4.46
2023-05-03T06:52:47.856Z,2.82
2023-05-03T06:53:47.851Z,4.45
2023-05-03T06:54:47.862Z,2.99
2023-05-03T06:55:47.843Z,3.22
2023-05-03T06:56:47.838Z,2.96
2023-05-03T06:57:47.840Z,3.5
2023-05-03T06:58:47.858Z,4.01
2023-05-03T06:59:47.849Z,4.81
2023-05-03T07:00:47.849Z,5.83
2023-05-03T07:01:47.858Z,4.41
2023-05-03T07:02:47.954Z,3.62
2023-05-03T07:03:47.983Z,3.95
2023-05-03T07:04:47.849Z,4.96
2023-05-03T07:05:47.848Z,3.53
2023-05-03T07:06:56.087Z,3.46
2023-05-03T07:07:47.844Z,3.46
2023-05-03T07:08:47.886Z,3.3
2023-05-03T07:09:47.851Z,3.33
2023-05-03T07:10:47.861Z,5.34
2023-05-03T07:11:47.839Z,4.01
2023-05-03T07:12:47.841Z,3.59
2023-05-03T07:13:47.856Z,3.99
2023-05-03T07:14:47.840Z,5.87
2023-05-03T07:15:47.868Z,4.46
2023-05-03T07:16:47.901Z,4.57
2023-05-03T07:17:47.889Z,5.58
2023-05-03T07:18:47.844Z,5.78
2023-05-03T07:19:47.844Z,6.43
2023-05-03T07:20:47.841Z,5.36
2023-05-03T07:21:47.843Z,6.67
2023-05-03T07:22:47.843Z,6.77
2023-05-03T07:23:47.858Z,6.88
2023-05-03T07:24:47.890Z,6.41
2023-05-03T07:25:47.890Z,6.19
2023-05-03T07:26:49.008Z,6.15
2023-05-03T07:27:47.841Z,5.8
2023-05-03T07:28:47.852Z,6.17
2023-05-03T07:29:47.846Z,6.06
2023-05-03T07:30:47.850Z,5.53
2023-05-03T07:31:47.851Z,6.98
2023-05-03T07:32:47.910Z,7.18
2023-05-03T07:33:47.960Z,6.61
2023-05-03T07:34:47.833Z,7.23
2023-05-03T07:35:47.832Z,2.67
2023-05-03T07:36:47.839Z,2.48
2023-05-03T07:37:47.846Z,2.63
2023-05-03T07:38:47.850Z,2.84
2023-05-03T07:39:47.857Z,2.97
2023-05-03T07:40:47.850Z,6.55
2023-05-03T07:41:47.838Z,3.06
2023-05-03T07:42:47.845Z,3.48
2023-05-03T07:43:47.850Z,4.27
2023-05-03T07:44:47.837Z,7.05
2023-05-03T07:45:47.866Z,4.18
2023-05-03T07:46:47.833Z,2.91
2023-05-03T07:47:47.894Z,3.61
2023-05-03T07:48:47.843Z,4.74
2023-05-03T07:49:47.844Z,6.63
2023-05-03T07:50:47.840Z,4.89
2023-05-03T07:51:47.829Z,3.02
2023-05-03T07:52:47.826Z,2.51
2023-05-03T07:53:47.835Z,2.32
2023-05-03T07:54:47.854Z,2.1
2023-05-03T07:55:47.844Z,1.92
2023-05-03T07:56:47.829Z,1.83
2023-05-03T07:57:47.850Z,1.76
2023-05-03T07:58:50.959Z,1.69
2023-05-03T07:59:47.839Z,1.65
2023-05-03T08:00:47.825Z,1.6
2023-05-03T08:01:47.839Z,1.58
2023-05-03T08:02:47.914Z,1.54
2023-05-03T08:03:48.059Z,1.54
2023-05-03T08:04:48.002Z,1.55
2023-05-03T08:05:47.979Z,1.56
2023-05-03T08:06:47.950Z,1.54
2023-05-03T08:07:47.833Z,1.54
2023-05-03T08:08:47.847Z,1.53
2023-05-03T08:09:47.851Z,1.6
2023-05-03T08:10:47.844Z,1.65
2023-05-03T08:11:47.839Z,1.68
2023-05-03T08:12:47.827Z,1.69
2023-05-03T08:13:47.848Z,1.7
2023-05-03T08:14:47.853Z,1.69
2023-05-03T08:15:47.887Z,1.71
2023-05-03T08:16:47.838Z,1.73
2023-05-03T08:17:47.894Z,1.79
2023-05-03T08:18:47.847Z,1.79
2023-05-03T08:19:47.831Z,1.82
2023-05-03T08:20:47.841Z,1.93
2023-05-03T08:21:47.838Z,2.11
2023-05-03T08:22:47.829Z,2.29
2023-05-03T08:23:47.849Z,2.43
2023-05-03T08:24:47.840Z,2.59
2023-05-03T08:25:47.851Z,2.94
2023-05-03T08:26:47.829Z,3.6
2023-05-03T08:27:47.842Z,4.33
2023-05-03T08:28:47.882Z,3.52
2023-05-03T08:29:47.839Z,3.78
2023-05-03T08:30:47.837Z,7.22
2023-05-03T08:31:47.902Z,5.76
2023-05-03T08:32:47.905Z,7.56
2023-05-03T08:33:47.848Z,7.91
2023-05-03T08:34:47.839Z,7.69
2023-05-03T08:35:49.274Z,8.73
2023-05-03T08:36:47.837Z,9.86
2023-05-03T08:37:47.843Z,10.09
2023-05-03T08:38:47.860Z,10.17
2023-05-03T08:39:47.848Z,3.17
2023-05-03T08:40:47.839Z,2.84
2023-05-03T08:41:47.832Z,3.01
2023-05-03T08:42:47.833Z,8.26
2023-05-03T08:43:47.862Z,3.1
2023-05-03T08:44:47.839Z,3.35
2023-05-03T08:45:47.834Z,7.29
2023-05-03T08:46:47.890Z,5.5
2023-05-03T08:47:47.839Z,2.89
2023-05-03T08:48:47.852Z,3.44
2023-05-03T08:49:47.836Z,2.69
2023-05-03T08:50:47.842Z,5.81
2023-05-03T08:51:47.831Z,4.4
2023-05-03T08:52:47.846Z,9.23
2023-05-03T08:53:47.846Z,9.95
2023-05-03T08:54:47.865Z,10.09
2023-05-03T08:55:47.835Z,10.65
2023-05-03T08:56:47.847Z,11.54
2023-05-03T08:57:47.843Z,11.56
2023-05-03T08:58:47.940Z,11.1
2023-05-03T08:59:47.847Z,4.83
2023-05-03T09:00:47.841Z,3.21
2023-05-03T09:01:47.912Z,3.13
2023-05-03T09:02:47.923Z,6.79
2023-05-03T09:03:49.387Z,6.4
2023-05-03T09:04:47.849Z,8.5
2023-05-03T09:05:47.881Z,9.67
2023-05-03T09:06:47.953Z,6.18
2023-05-03T09:07:47.838Z,6.18
2023-05-03T09:08:47.863Z,4.13
2023-05-03T09:09:47.887Z,4.73
2023-05-03T09:10:47.835Z,7.47
2023-05-03T09:11:47.842Z,4.36
2023-05-03T09:12:47.832Z,4.24
2023-05-03T09:13:47.852Z,4.8
2023-05-03T09:14:47.844Z,3.94
2023-05-03T09:15:47.837Z,3.61
2023-05-03T09:16:47.943Z,3.63
2023-05-03T09:17:47.879Z,3.85
2023-05-03T09:18:53.044Z,4.01
2023-05-03T09:19:52.119Z,4.47
2023-05-03T09:20:53.049Z,4.69
2023-05-03T09:21:52.115Z,5.31
2023-05-03T09:22:52.117Z,8.66
2023-05-03T09:23:52.131Z,8.14
2023-05-03T09:24:52.123Z,8.03
2023-05-03T09:25:52.115Z,4.77
2023-05-03T09:26:52.131Z,4
2023-05-03T09:27:52.163Z,3.43
2023-05-03T09:28:52.125Z,3.22
2023-05-03T09:29:52.126Z,3.2
2023-05-03T09:30:52.114Z,3.32
2023-05-03T09:31:52.160Z,3.29
2023-05-03T09:32:52.169Z,3.28
2023-05-03T09:33:52.136Z,3.36
2023-05-03T09:34:52.116Z,3.61
2023-05-03T09:35:52.104Z,4.11
2023-05-03T09:36:52.101Z,5.35
2023-05-03T09:37:52.114Z,3.85
2023-05-03T09:38:52.131Z,4.7
2023-05-03T09:39:52.122Z,11.63
2023-05-03T09:40:52.110Z,11.36
2023-05-03T09:41:52.115Z,9.91
2023-05-03T09:42:52.117Z,11.26
2023-05-03T09:43:52.137Z,8.34
2023-05-03T09:44:52.124Z,11.02
2023-05-03T09:45:52.129Z,7.09
2023-05-03T09:46:52.121Z,8.82
2023-05-03T09:47:52.158Z,8.1
2023-05-03T09:48:52.092Z,10.74
2023-05-03T09:49:52.122Z,11.7
2023-05-03T09:50:52.114Z,12.11
2023-05-03T09:51:52.119Z,12.04
2023-05-03T09:52:52.104Z,11.91
2023-05-03T09:53:52.115Z,12.32
2023-05-03T09:54:52.142Z,13.38
2023-05-03T09:55:52.121Z,13.88
2023-05-03T09:56:52.113Z,2.89
2023-05-03T09:57:52.114Z,2.82
2023-05-03T09:58:52.118Z,2.77
2023-05-03T09:59:52.121Z,2.74
2023-05-03T10:00:52.409Z,2.64
2023-05-03T10:01:52.161Z,2.69
2023-05-03T10:02:52.147Z,2.89
2023-05-03T10:03:52.149Z,3.43
2023-05-03T10:04:52.120Z,8.52
2023-05-03T10:05:52.107Z,13.26
2023-05-03T10:06:52.178Z,13.6
2023-05-03T10:07:52.118Z,13.6
2023-05-03T10:08:52.109Z,11.08
2023-05-03T10:09:52.130Z,10.08
2023-05-03T10:10:52.097Z,10.71
2023-05-03T10:11:52.148Z,12.19
2023-05-03T10:12:52.106Z,12.78
2023-05-03T10:13:52.104Z,11.77
2023-05-03T10:14:52.109Z,11.43
2023-05-03T10:15:52.147Z,11.6
2023-05-03T10:16:52.116Z,11.78
2023-05-03T10:17:52.148Z,11.95
2023-05-03T10:18:52.121Z,7.53
2023-05-03T10:19:52.108Z,3.44
2023-05-03T10:20:52.129Z,13.45
2023-05-03T10:21:52.116Z,13.92
2023-05-03T10:22:52.106Z,13.36
2023-05-03T10:23:52.118Z,12.17
2023-05-03T10:24:52.132Z,11.81
2023-05-03T10:25:52.100Z,12.73
2023-05-03T10:26:52.103Z,13.26
2023-05-03T10:27:52.106Z,12.03
2023-05-03T10:28:52.115Z,10.83
2023-05-03T10:29:52.149Z,10.92
2023-05-03T10:30:52.102Z,8.83
2023-05-03T10:31:52.160Z,9.26
2023-05-03T10:32:52.155Z,4.68
2023-05-03T10:33:52.118Z,4.06
2023-05-03T10:34:52.088Z,4.23
2023-05-03T10:35:52.096Z,4.41
2023-05-03T10:36:52.106Z,4.32
2023-05-03T10:37:52.112Z,7.06
2023-05-03T10:38:52.118Z,13.23
2023-05-03T10:39:52.099Z,12.84
2023-05-03T10:40:52.139Z,9.79
2023-05-03T10:41:52.095Z,7.25
2023-05-03T10:42:52.095Z,10.19
2023-05-03T10:43:52.130Z,8.97
2023-05-03T10:44:52.101Z,14.3
2023-05-03T10:45:52.125Z,13.54
2023-05-03T10:46:52.186Z,7.04
2023-05-03T10:47:52.146Z,3.9
2023-05-03T10:48:52.114Z,3.83
2023-05-03T10:49:52.096Z,4.46
2023-05-03T10:50:52.098Z,7.44
2023-05-03T10:51:52.090Z,8.74
2023-05-03T10:52:52.114Z,3.71
2023-05-03T10:53:52.119Z,3.33
2023-05-03T10:54:52.107Z,3.28
2023-05-03T10:55:52.096Z,3.27
2023-05-03T10:56:52.112Z,3.51
2023-05-03T10:57:52.098Z,4.26
2023-05-03T10:58:52.111Z,13.38
2023-05-03T10:59:52.098Z,12.88
2023-05-03T11:00:52.103Z,12.48
2023-05-03T11:01:52.126Z,12.29
2023-05-03T11:02:52.292Z,11.21
2023-05-03T11:03:52.123Z,10.09
2023-05-03T11:04:52.130Z,10.02
2023-05-03T11:05:52.101Z,10.51
2023-05-03T11:06:52.322Z,10.98
2023-05-03T11:07:52.093Z,10.98
2023-05-03T11:08:52.109Z,12.13
2023-05-03T11:09:52.106Z,12.06
2023-05-03T11:10:52.083Z,12.35
2023-05-03T11:11:52.091Z,13.28
2023-05-03T11:12:52.096Z,13.12
2023-05-03T11:13:52.145Z,12.82
2023-05-03T11:14:52.102Z,6.38
2023-05-03T11:15:52.100Z,10.89
2023-05-03T11:16:52.178Z,5.69
2023-05-03T11:17:52.113Z,13.76
2023-05-03T11:18:52.119Z,11.72
2023-05-03T11:19:52.093Z,7.63
2023-05-03T11:20:52.080Z,6.19
2023-05-03T11:21:52.104Z,9.04
2023-05-03T11:22:52.109Z,8.88
2023-05-03T11:23:52.116Z,10.31
2023-05-03T11:24:52.118Z,11.01
2023-05-03T11:25:52.094Z,11.44
2023-05-03T11:26:52.092Z,6.85
2023-05-03T11:27:52.089Z,7.14
2023-05-03T11:28:52.103Z,5.2
2023-05-03T11:29:52.086Z,9.27
2023-05-03T11:30:52.088Z,5.63
2023-05-03T11:31:52.156Z,6.51
2023-05-03T11:32:52.120Z,8.68
2023-05-03T11:33:52.100Z,10.01
2023-05-03T11:34:52.108Z,6.79
2023-05-03T11:35:52.086Z,12.71
2023-05-03T11:36:52.101Z,12.06
2023-05-03T11:37:52.092Z,12.25
2023-05-03T11:38:52.110Z,12.76
2023-05-03T11:39:52.105Z,12.3
2023-05-03T11:40:52.098Z,10.43
2023-05-03T11:41:52.108Z,8.09
2023-05-03T11:42:52.119Z,7.23
2023-05-03T11:44:03.919Z,7.28
2023-05-03T11:44:52.094Z,7.46
2023-05-03T11:45:52.156Z,7.79
2023-05-03T11:46:52.122Z,8.81
2023-05-03T11:47:52.142Z,10.29
2023-05-03T11:48:52.122Z,11.59
2023-05-03T11:49:52.094Z,11.97
2023-05-03T11:50:52.075Z,11.57
2023-05-03T11:51:54.686Z,11.5
2023-05-03T11:52:52.086Z,12.56
2023-05-03T11:53:52.102Z,12.92
2023-05-03T11:54:52.128Z,11.65
2023-05-03T11:55:52.109Z,11.12
2023-05-03T11:56:52.983Z,11.86
2023-05-03T11:57:52.101Z,12.12
2023-05-03T11:58:52.110Z,11.23
2023-05-03T11:59:52.123Z,10.36
2023-05-03T12:00:52.102Z,9.12
2023-05-03T12:01:52.106Z,8.87
2023-05-03T12:02:52.167Z,10.6
2023-05-03T12:03:52.223Z,12.28
2023-05-03T12:04:52.610Z,11.88
2023-05-03T12:05:52.462Z,10
2023-05-03T12:06:52.854Z,9.25
2023-05-03T12:07:52.469Z,9.25
2023-05-03T12:08:52.593Z,10.84
2023-05-03T12:10:05.745Z,10.56
2023-05-03T12:10:54.947Z,10.59
2023-05-03T12:11:54.260Z,11.72
2023-05-03T12:12:53.107Z,11.91
2023-05-03T12:13:52.274Z,11.95
2023-05-03T12:14:52.244Z,11.65
2023-05-03T12:16:01.916Z,11.05
2023-05-03T12:16:52.879Z,10.07
2023-05-03T12:17:54.900Z,9.44
2023-05-03T12:18:53.612Z,10.08
2023-05-03T12:19:54.331Z,11.14
2023-05-03T12:22:04.581Z,8.92
2023-05-03T12:22:53.077Z,10.92
2023-05-03T12:23:55.495Z,10.11
2023-05-03T12:24:53.735Z,8.97
2023-05-03T12:25:52.982Z,8.74
2023-05-03T12:26:52.884Z,9.42
2023-05-03T12:28:07.320Z,10.15
2023-05-03T12:28:55.423Z,9.79
2023-05-03T12:29:52.218Z,9.09
2023-05-03T12:30:53.531Z,8.28
2023-05-03T12:31:52.145Z,7.77
2023-05-03T12:32:52.211Z,7.92
2023-05-03T12:35:54.215Z,10.06
2023-05-03T12:36:54.114Z,8.56
2023-05-03T12:38:55.806Z,7.96
2023-05-03T12:40:09.454Z,8.44
2023-05-03T12:40:52.273Z,8.29
2023-05-03T12:42:07.224Z,8.26
2023-05-03T12:42:52.113Z,9.44
2023-05-03T12:43:52.696Z,10.61
2023-05-03T12:44:53.627Z,10.78
2023-05-03T12:46:02.618Z,10.68
2023-05-03T12:46:53.378Z,10.41
2023-05-03T12:47:52.249Z,9.4
2023-05-03T12:48:53.997Z,8.88
2023-05-03T12:49:52.594Z,8.97
2023-05-03T12:50:52.349Z,10.01
2023-05-03T12:52:11.156Z,10.4
2023-05-03T12:52:53.078Z,9.24
2023-05-03T12:54:55.732Z,8.1
2023-05-03T12:55:52.430Z,9.14
2023-05-03T12:56:55.309Z,9.06
2023-05-03T12:58:10.323Z,8.12
2023-05-03T12:59:15.087Z,8.6
2023-05-03T12:59:53.164Z,9.89
2023-05-03T13:01:37.276Z,9.87
2023-05-03T13:04:05.619Z,7.01
2023-05-03T13:04:57.671Z,7.58
2023-05-03T13:05:52.497Z,8.93
2023-05-03T13:07:56.176Z,9.25
2023-05-03T13:08:52.296Z,7.51
2023-05-03T13:10:52.187Z,7.14
2023-05-03T13:11:52.451Z,8.39
2023-05-03T13:12:52.116Z,8.42
2023-05-03T13:13:52.108Z,8.07
2023-05-03T13:14:52.115Z,8.62
2023-05-03T13:15:52.111Z,7.82
2023-05-03T13:16:52.272Z,6.6
2023-05-03T13:17:52.293Z,6.31
2023-05-03T13:18:52.097Z,7.74
2023-05-03T13:19:52.128Z,9.69
2023-05-03T13:20:52.095Z,8.83
2023-05-03T13:21:52.106Z,7.5
2023-05-03T13:22:52.104Z,8.44
2023-05-03T13:23:52.107Z,8.33
2023-05-03T13:24:52.118Z,6.75
2023-05-03T13:25:52.098Z,6.97
2023-05-03T13:26:52.128Z,8.05
2023-05-03T13:27:52.121Z,8.86
2023-05-03T13:28:52.105Z,9.25
2023-05-03T13:29:52.121Z,8.57
2023-05-03T13:30:52.101Z,7.91
2023-05-03T13:31:52.161Z,8.42
2023-05-03T13:32:52.207Z,8.05
2023-05-03T13:33:52.105Z,7.03
2023-05-03T13:34:52.109Z,7.15
2023-05-03T13:35:52.105Z,7.12
2023-05-03T13:36:52.097Z,6.08
2023-05-03T13:37:52.107Z,5.52
2023-05-03T13:38:52.111Z,6.4
2023-05-03T13:39:52.132Z,2.07
2023-05-03T13:40:52.143Z,1.96
2023-05-03T13:41:52.104Z,2.79
2023-05-03T13:42:52.129Z,3.23
2023-05-03T13:43:52.133Z,3.19
2023-05-03T13:44:52.110Z,6.37
2023-05-03T13:45:52.127Z,4.48